sensor_id;sensor_type;location;lat;lon;timestamp;P1;durP1;ratioP1;P2;durP2;ratioP2
19879;SDS011;10102;50.828;4.416;2024-03-22T00:01:52;40.95;;;23.40;;
19879;SDS011;10102;50.828;4.416;2024-03-22T00:04:19;42.65;;;23.25;;
19879;SDS011;10102;50.828;4.416;2024-03-22T00:06:45;39.80;;;21.83;;
19879;SDS011;10102;50.828;4.416;2024-03-22T00:09:13;37.38;;;20.98;;
19879;SDS011;10102;50.828;4.416;2024-03-22T00:11:39;38.53;;;21.88;;
19879;SDS011;10102;50.828;4.416;2024-03-22T00:14:06;37.55;;;20.85;;
19879;SDS011;10102;50.828;4.416;2024-03-22T00:16:32;45.13;;;20.80;;
19879;SDS011;10102;50.828;4.416;2024-03-22T00:18:57;38.38;;;19.90;;
19879;SDS011;10102;50.828;4.416;2024-03-22T00:21:23;36.45;;;19.95;;
19879;SDS011;10102;50.828;4.416;2024-03-22T00:23:49;35.45;;;19.88;;
19879;SDS011;10102;50.828;4.416;2024-03-22T00:26:15;35.80;;;19.00;;
19879;SDS011;10102;50.828;4.416;2024-03-22T00:28:42;38.72;;;18.60;;
19879;SDS011;10102;50.828;4.416;2024-03-22T00:31:08;36.15;;;18.23;;
19879;SDS011;10102;50.828;4.416;2024-03-22T00:33:34;37.17;;;19.75;;
19879;SDS011;10102;50.828;4.416;2024-03-22T00:36:00;32.35;;;18.17;;
19879;SDS011;10102;50.828;4.416;2024-03-22T00:38:26;33.75;;;17.73;;
19879;SDS011;10102;50.828;4.416;2024-03-22T00:40:51;33.22;;;18.02;;
19879;SDS011;10102;50.828;4.416;2024-03-22T00:43:19;31.35;;;19.15;;
19879;SDS011;10102;50.828;4.416;2024-03-22T00:45:45;34.28;;;19.40;;
19879;SDS011;10102;50.828;4.416;2024-03-22T00:48:11;37.38;;;18.85;;
19879;SDS011;10102;50.828;4.416;2024-03-22T00:50:37;32.58;;;18.90;;
19879;SDS011;10102;50.828;4.416;2024-03-22T00:53:03;31.23;;;19.23;;
19879;SDS011;10102;50.828;4.416;2024-03-22T00:55:30;31.90;;;18.73;;
19879;SDS011;10102;50.828;4.416;2024-03-22T00:57:56;29.70;;;18.52;;
19879;SDS011;10102;50.828;4.416;2024-03-22T01:00:22;31.55;;;20.13;;
19879;SDS011;10102;50.828;4.416;2024-03-22T01:02:49;33.92;;;20.25;;
19879;SDS011;10102;50.828;4.416;2024-03-22T01:05:15;37.72;;;19.27;;
19879;SDS011;10102;50.828;4.416;2024-03-22T01:07:41;35.92;;;20.08;;
19879;SDS011;10102;50.828;4.416;2024-03-22T01:10:07;40.88;;;20.17;;
19879;SDS011;10102;50.828;4.416;2024-03-22T01:12:33;35.67;;;21.40;;
19879;SDS011;10102;50.828;4.416;2024-03-22T01:15:00;37.17;;;19.50;;
19879;SDS011;10102;50.828;4.416;2024-03-22T01:17:25;37.90;;;20.70;;
19879;SDS011;10102;50.828;4.416;2024-03-22T01:19:51;36.95;;;22.17;;
19879;SDS011;10102;50.828;4.416;2024-03-22T01:22:17;48.45;;;22.85;;
19879;SDS011;10102;50.828;4.416;2024-03-22T01:24:43;42.80;;;22.25;;
19879;SDS011;10102;50.828;4.416;2024-03-22T01:27:09;36.70;;;21.85;;
19879;SDS011;10102;50.828;4.416;2024-03-22T01:29:35;35.67;;;21.92;;
19879;SDS011;10102;50.828;4.416;2024-03-22T01:32:01;37.80;;;21.80;;
19879;SDS011;10102;50.828;4.416;2024-03-22T01:34:27;41.30;;;22.23;;
19879;SDS011;10102;50.828;4.416;2024-03-22T01:36:53;44.38;;;21.17;;
19879;SDS011;10102;50.828;4.416;2024-03-22T01:39:20;44.08;;;22.95;;
19879;SDS011;10102;50.828;4.416;2024-03-22T01:41:55;41.17;;;21.85;;
19879;SDS011;10102;50.828;4.416;2024-03-22T01:44:26;36.90;;;21.95;;
19879;SDS011;10102;50.828;4.416;2024-03-22T01:46:53;37.00;;;21.23;;
19879;SDS011;10102;50.828;4.416;2024-03-22T01:49:18;39.47;;;23.40;;
19879;SDS011;10102;50.828;4.416;2024-03-22T01:51:44;38.22;;;22.52;;
19879;SDS011;10102;50.828;4.416;2024-03-22T01:54:10;39.05;;;22.95;;
19879;SDS011;10102;50.828;4.416;2024-03-22T01:56:36;45.22;;;22.20;;
19879;SDS011;10102;50.828;4.416;2024-03-22T01:59:04;40.45;;;21.45;;
19879;SDS011;10102;50.828;4.416;2024-03-22T02:01:30;41.60;;;21.52;;
19879;SDS011;10102;50.828;4.416;2024-03-22T02:03:56;42.20;;;23.38;;
19879;SDS011;10102;50.828;4.416;2024-03-22T02:06:22;40.45;;;22.70;;
19879;SDS011;10102;50.828;4.416;2024-03-22T02:08:48;34.28;;;21.35;;
19879;SDS011;10102;50.828;4.416;2024-03-22T02:11:13;40.20;;;21.45;;
19879;SDS011;10102;50.828;4.416;2024-03-22T02:13:39;42.45;;;22.60;;
19879;SDS011;10102;50.828;4.416;2024-03-22T02:16:05;39.47;;;22.25;;
19879;SDS011;10102;50.828;4.416;2024-03-22T02:18:31;38.83;;;22.38;;
19879;SDS011;10102;50.828;4.416;2024-03-22T02:20:57;43.72;;;22.05;;
19879;SDS011;10102;50.828;4.416;2024-03-22T02:25:57;40.13;;;20.83;;
19879;SDS011;10102;50.828;4.416;2024-03-22T02:28:23;38.10;;;22.00;;
19879;SDS011;10102;50.828;4.416;2024-03-22T02:30:49;35.95;;;20.70;;
19879;SDS011;10102;50.828;4.416;2024-03-22T02:33:14;39.13;;;20.33;;
19879;SDS011;10102;50.828;4.416;2024-03-22T02:35:40;34.63;;;20.92;;
19879;SDS011;10102;50.828;4.416;2024-03-22T02:38:06;41.67;;;20.70;;
19879;SDS011;10102;50.828;4.416;2024-03-22T02:40:31;32.67;;;20.42;;
19879;SDS011;10102;50.828;4.416;2024-03-22T02:42:57;34.38;;;21.00;;
19879;SDS011;10102;50.828;4.416;2024-03-22T02:45:23;37.70;;;21.10;;
19879;SDS011;10102;50.828;4.416;2024-03-22T02:47:48;36.35;;;20.15;;
19879;SDS011;10102;50.828;4.416;2024-03-22T02:50:14;35.70;;;21.17;;
19879;SDS011;10102;50.828;4.416;2024-03-22T02:52:40;41.80;;;20.02;;
19879;SDS011;10102;50.828;4.416;2024-03-22T02:55:05;36.25;;;19.02;;
19879;SDS011;10102;50.828;4.416;2024-03-22T02:57:31;40.40;;;20.60;;
19879;SDS011;10102;50.828;4.416;2024-03-22T02:59:57;32.95;;;20.00;;
19879;SDS011;10102;50.828;4.416;2024-03-22T03:02:25;36.42;;;19.60;;
19879;SDS011;10102;50.828;4.416;2024-03-22T03:04:51;31.95;;;17.95;;
19879;SDS011;10102;50.828;4.416;2024-03-22T03:07:16;30.85;;;17.92;;
19879;SDS011;10102;50.828;4.416;2024-03-22T03:09:42;34.13;;;18.85;;
19879;SDS011;10102;50.828;4.416;2024-03-22T03:12:08;32.90;;;18.88;;
19879;SDS011;10102;50.828;4.416;2024-03-22T03:14:33;32.40;;;17.77;;
19879;SDS011;10102;50.828;4.416;2024-03-22T03:16:59;33.42;;;18.33;;
19879;SDS011;10102;50.828;4.416;2024-03-22T03:19:25;33.70;;;17.73;;
19879;SDS011;10102;50.828;4.416;2024-03-22T03:21:51;31.83;;;18.52;;
19879;SDS011;10102;50.828;4.416;2024-03-22T03:24:17;39.40;;;18.95;;
19879;SDS011;10102;50.828;4.416;2024-03-22T03:26:43;32.35;;;18.02;;
19879;SDS011;10102;50.828;4.416;2024-03-22T03:29:08;27.83;;;16.90;;
19879;SDS011;10102;50.828;4.416;2024-03-22T03:31:35;26.90;;;16.63;;
19879;SDS011;10102;50.828;4.416;2024-03-22T03:34:00;31.23;;;17.90;;
19879;SDS011;10102;50.828;4.416;2024-03-22T03:36:26;28.27;;;16.45;;
19879;SDS011;10102;50.828;4.416;2024-03-22T03:38:52;30.95;;;17.27;;
19879;SDS011;10102;50.828;4.416;2024-03-22T03:41:18;32.90;;;16.83;;
19879;SDS011;10102;50.828;4.416;2024-03-22T03:43:43;34.78;;;16.88;;
19879;SDS011;10102;50.828;4.416;2024-03-22T03:46:10;32.83;;;16.10;;
19879;SDS011;10102;50.828;4.416;2024-03-22T03:48:35;31.55;;;15.65;;
19879;SDS011;10102;50.828;4.416;2024-03-22T03:51:01;31.88;;;17.45;;
19879;SDS011;10102;50.828;4.416;2024-03-22T03:53:28;32.55;;;16.02;;
19879;SDS011;10102;50.828;4.416;2024-03-22T03:55:55;25.95;;;15.80;;
19879;SDS011;10102;50.828;4.416;2024-03-22T03:58:20;28.80;;;15.20;;
19879;SDS011;10102;50.828;4.416;2024-03-22T04:00:46;28.77;;;15.98;;
19879;SDS011;10102;50.828;4.416;2024-03-22T04:03:12;27.52;;;15.50;;
19879;SDS011;10102;50.828;4.416;2024-03-22T04:05:39;26.85;;;15.85;;
19879;SDS011;10102;50.828;4.416;2024-03-22T04:08:05;25.77;;;15.48;;
19879;SDS011;10102;50.828;4.416;2024-03-22T04:10:31;24.98;;;14.57;;
19879;SDS011;10102;50.828;4.416;2024-03-22T04:12:57;30.00;;;15.48;;
19879;SDS011;10102;50.828;4.416;2024-03-22T04:15:23;26.88;;;15.20;;
19879;SDS011;10102;50.828;4.416;2024-03-22T04:17:49;28.92;;;15.25;;
19879;SDS011;10102;50.828;4.416;2024-03-22T04:20:14;32.53;;;14.82;;
19879;SDS011;10102;50.828;4.416;2024-03-22T04:22:40;28.58;;;15.73;;
19879;SDS011;10102;50.828;4.416;2024-03-22T04:25:06;25.08;;;15.25;;
19879;SDS011;10102;50.828;4.416;2024-03-22T04:27:35;25.42;;;14.00;;
19879;SDS011;10102;50.828;4.416;2024-03-22T04:30:01;24.90;;;14.68;;
19879;SDS011;10102;50.828;4.416;2024-03-22T04:32:27;22.60;;;13.23;;
19879;SDS011;10102;50.828;4.416;2024-03-22T04:34:53;27.73;;;14.70;;
19879;SDS011;10102;50.828;4.416;2024-03-22T04:37:20;22.25;;;13.02;;
19879;SDS011;10102;50.828;4.416;2024-03-22T04:39:46;23.13;;;13.45;;
19879;SDS011;10102;50.828;4.416;2024-03-22T04:42:11;26.67;;;13.77;;
19879;SDS011;10102;50.828;4.416;2024-03-22T04:44:37;25.05;;;14.20;;
19879;SDS011;10102;50.828;4.416;2024-03-22T04:47:03;25.52;;;13.00;;
19879;SDS011;10102;50.828;4.416;2024-03-22T04:49:29;26.30;;;15.23;;
19879;SDS011;10102;50.828;4.416;2024-03-22T04:51:55;28.63;;;14.38;;
19879;SDS011;10102;50.828;4.416;2024-03-22T04:54:20;30.92;;;13.57;;
19879;SDS011;10102;50.828;4.416;2024-03-22T04:56:46;27.20;;;13.93;;
19879;SDS011;10102;50.828;4.416;2024-03-22T04:59:13;27.90;;;14.90;;
19879;SDS011;10102;50.828;4.416;2024-03-22T05:01:39;27.83;;;14.60;;
19879;SDS011;10102;50.828;4.416;2024-03-22T05:04:05;29.92;;;14.32;;
19879;SDS011;10102;50.828;4.416;2024-03-22T05:06:30;27.67;;;13.82;;
19879;SDS011;10102;50.828;4.416;2024-03-22T05:08:56;27.35;;;15.07;;
19879;SDS011;10102;50.828;4.416;2024-03-22T05:11:22;25.50;;;14.85;;
19879;SDS011;10102;50.828;4.416;2024-03-22T05:13:49;30.42;;;14.43;;
19879;SDS011;10102;50.828;4.416;2024-03-22T05:16:14;28.30;;;14.13;;
19879;SDS011;10102;50.828;4.416;2024-03-22T05:18:40;25.65;;;12.88;;
19879;SDS011;10102;50.828;4.416;2024-03-22T05:21:06;24.92;;;13.20;;
19879;SDS011;10102;50.828;4.416;2024-03-22T05:23:32;28.38;;;13.73;;
19879;SDS011;10102;50.828;4.416;2024-03-22T05:25:58;24.58;;;13.52;;
19879;SDS011;10102;50.828;4.416;2024-03-22T05:28:24;26.02;;;12.80;;
19879;SDS011;10102;50.828;4.416;2024-03-22T05:30:51;24.27;;;13.68;;
19879;SDS011;10102;50.828;4.416;2024-03-22T05:33:16;25.88;;;14.15;;
19879;SDS011;10102;50.828;4.416;2024-03-22T05:35:42;28.98;;;13.40;;
19879;SDS011;10102;50.828;4.416;2024-03-22T05:38:08;24.17;;;13.63;;
19879;SDS011;10102;50.828;4.416;2024-03-22T05:40:37;25.00;;;12.55;;
19879;SDS011;10102;50.828;4.416;2024-03-22T05:43:05;26.23;;;14.48;;
19879;SDS011;10102;50.828;4.416;2024-03-22T05:45:31;26.48;;;14.63;;
19879;SDS011;10102;50.828;4.416;2024-03-22T05:47:57;27.73;;;14.70;;
19879;SDS011;10102;50.828;4.416;2024-03-22T05:50:22;25.98;;;14.43;;
19879;SDS011;10102;50.828;4.416;2024-03-22T05:52:48;22.15;;;13.48;;
19879;SDS011;10102;50.828;4.416;2024-03-22T05:55:14;28.42;;;14.10;;
19879;SDS011;10102;50.828;4.416;2024-03-22T05:57:40;22.90;;;13.35;;
19879;SDS011;10102;50.828;4.416;2024-03-22T06:00:06;27.13;;;14.07;;
19879;SDS011;10102;50.828;4.416;2024-03-22T06:02:35;19.25;;;12.68;;
19879;SDS011;10102;50.828;4.416;2024-03-22T06:05:00;22.50;;;13.90;;
19879;SDS011;10102;50.828;4.416;2024-03-22T06:07:26;28.17;;;13.02;;
19879;SDS011;10102;50.828;4.416;2024-03-22T06:09:52;23.92;;;12.88;;
19879;SDS011;10102;50.828;4.416;2024-03-22T06:12:17;25.73;;;12.13;;
19879;SDS011;10102;50.828;4.416;2024-03-22T06:14:44;23.48;;;11.80;;
19879;SDS011;10102;50.828;4.416;2024-03-22T06:17:10;26.20;;;13.43;;
19879;SDS011;10102;50.828;4.416;2024-03-22T06:19:36;21.17;;;12.98;;
19879;SDS011;10102;50.828;4.416;2024-03-22T06:22:03;24.30;;;11.85;;
19879;SDS011;10102;50.828;4.416;2024-03-22T06:24:29;19.50;;;11.95;;
19879;SDS011;10102;50.828;4.416;2024-03-22T06:26:55;19.35;;;12.13;;
19879;SDS011;10102;50.828;4.416;2024-03-22T06:29:21;21.80;;;12.95;;
19879;SDS011;10102;50.828;4.416;2024-03-22T06:31:46;19.88;;;11.93;;
19879;SDS011;10102;50.828;4.416;2024-03-22T06:34:12;23.42;;;12.50;;
19879;SDS011;10102;50.828;4.416;2024-03-22T06:36:38;21.35;;;11.52;;
19879;SDS011;10102;50.828;4.416;2024-03-22T06:39:04;20.67;;;11.98;;
19879;SDS011;10102;50.828;4.416;2024-03-22T06:41:34;24.30;;;11.98;;
19879;SDS011;10102;50.828;4.416;2024-03-22T06:44:00;24.20;;;12.80;;
19879;SDS011;10102;50.828;4.416;2024-03-22T06:46:26;23.25;;;12.63;;
19879;SDS011;10102;50.828;4.416;2024-03-22T06:48:53;26.30;;;11.98;;
19879;SDS011;10102;50.828;4.416;2024-03-22T06:51:19;26.15;;;13.20;;
19879;SDS011;10102;50.828;4.416;2024-03-22T06:53:45;27.73;;;12.27;;
19879;SDS011;10102;50.828;4.416;2024-03-22T06:56:12;25.10;;;12.65;;
19879;SDS011;10102;50.828;4.416;2024-03-22T06:58:39;24.58;;;11.43;;
19879;SDS011;10102;50.828;4.416;2024-03-22T07:01:05;22.40;;;11.93;;
19879;SDS011;10102;50.828;4.416;2024-03-22T07:03:30;22.55;;;11.82;;
19879;SDS011;10102;50.828;4.416;2024-03-22T07:05:56;21.92;;;11.13;;
19879;SDS011;10102;50.828;4.416;2024-03-22T07:08:29;22.80;;;11.68;;
19879;SDS011;10102;50.828;4.416;2024-03-22T07:10:54;19.80;;;11.82;;
19879;SDS011;10102;50.828;4.416;2024-03-22T07:13:20;24.40;;;12.13;;
19879;SDS011;10102;50.828;4.416;2024-03-22T07:15:46;23.33;;;12.15;;
19879;SDS011;10102;50.828;4.416;2024-03-22T07:18:13;24.73;;;11.63;;
19879;SDS011;10102;50.828;4.416;2024-03-22T07:20:39;26.85;;;11.98;;
19879;SDS011;10102;50.828;4.416;2024-03-22T07:23:05;20.92;;;10.80;;
19879;SDS011;10102;50.828;4.416;2024-03-22T07:25:31;24.45;;;11.70;;
19879;SDS011;10102;50.828;4.416;2024-03-22T07:27:57;24.73;;;11.55;;
19879;SDS011;10102;50.828;4.416;2024-03-22T07:30:24;27.70;;;12.13;;
19879;SDS011;10102;50.828;4.416;2024-03-22T07:32:50;25.73;;;12.25;;
19879;SDS011;10102;50.828;4.416;2024-03-22T07:35:22;25.05;;;11.85;;
19879;SDS011;10102;50.828;4.416;2024-03-22T07:40:19;24.85;;;11.75;;
19879;SDS011;10102;50.828;4.416;2024-03-22T07:42:45;22.05;;;11.43;;
19879;SDS011;10102;50.828;4.416;2024-03-22T07:45:11;23.20;;;11.93;;
19879;SDS011;10102;50.828;4.416;2024-03-22T07:50:11;26.48;;;12.88;;
19879;SDS011;10102;50.828;4.416;2024-03-22T07:52:36;22.10;;;13.20;;
19879;SDS011;10102;50.828;4.416;2024-03-22T07:55:02;26.10;;;12.93;;
19879;SDS011;10102;50.828;4.416;2024-03-22T07:57:28;21.20;;;9.27;;
19879;SDS011;10102;50.828;4.416;2024-03-22T07:59:56;24.58;;;11.25;;
19879;SDS011;10102;50.828;4.416;2024-03-22T08:02:23;23.70;;;11.65;;
19879;SDS011;10102;50.828;4.416;2024-03-22T08:04:49;21.05;;;12.35;;
19879;SDS011;10102;50.828;4.416;2024-03-22T08:07:15;17.73;;;10.70;;
19879;SDS011;10102;50.828;4.416;2024-03-22T08:09:41;19.90;;;11.15;;
19879;SDS011;10102;50.828;4.416;2024-03-22T08:12:06;24.45;;;11.15;;
19879;SDS011;10102;50.828;4.416;2024-03-22T08:14:32;17.23;;;9.50;;
19879;SDS011;10102;50.828;4.416;2024-03-22T08:16:58;19.10;;;11.18;;
19879;SDS011;10102;50.828;4.416;2024-03-22T08:19:24;23.10;;;10.85;;
19879;SDS011;10102;50.828;4.416;2024-03-22T08:21:50;18.40;;;11.13;;
19879;SDS011;10102;50.828;4.416;2024-03-22T08:24:16;22.38;;;13.07;;
19879;SDS011;10102;50.828;4.416;2024-03-22T08:26:43;26.33;;;13.35;;
19879;SDS011;10102;50.828;4.416;2024-03-22T08:29:11;28.42;;;14.00;;
19879;SDS011;10102;50.828;4.416;2024-03-22T08:31:40;24.15;;;14.10;;
19879;SDS011;10102;50.828;4.416;2024-03-22T08:34:07;24.05;;;14.38;;
19879;SDS011;10102;50.828;4.416;2024-03-22T08:36:34;29.38;;;15.13;;
19879;SDS011;10102;50.828;4.416;2024-03-22T08:38:59;26.38;;;14.68;;
19879;SDS011;10102;50.828;4.416;2024-03-22T08:41:26;31.50;;;14.38;;
19879;SDS011;10102;50.828;4.416;2024-03-22T08:43:52;23.38;;;13.80;;
19879;SDS011;10102;50.828;4.416;2024-03-22T08:46:18;26.00;;;14.88;;
19879;SDS011;10102;50.828;4.416;2024-03-22T08:48:46;24.25;;;13.82;;
19879;SDS011;10102;50.828;4.416;2024-03-22T08:51:12;25.02;;;13.85;;
19879;SDS011;10102;50.828;4.416;2024-03-22T08:53:37;21.23;;;12.38;;
19879;SDS011;10102;50.828;4.416;2024-03-22T08:56:03;21.23;;;13.20;;
19879;SDS011;10102;50.828;4.416;2024-03-22T08:58:29;27.55;;;13.52;;
19879;SDS011;10102;50.828;4.416;2024-03-22T09:00:55;27.45;;;13.10;;
19879;SDS011;10102;50.828;4.416;2024-03-22T09:03:20;22.05;;;12.70;;
19879;SDS011;10102;50.828;4.416;2024-03-22T09:05:46;17.52;;;11.30;;
19879;SDS011;10102;50.828;4.416;2024-03-22T09:08:12;19.05;;;11.45;;
19879;SDS011;10102;50.828;4.416;2024-03-22T09:10:38;25.45;;;11.32;;
19879;SDS011;10102;50.828;4.416;2024-03-22T09:13:04;22.52;;;12.70;;
19879;SDS011;10102;50.828;4.416;2024-03-22T09:15:30;21.13;;;11.82;;
19879;SDS011;10102;50.828;4.416;2024-03-22T09:17:56;21.42;;;12.40;;
19879;SDS011;10102;50.828;4.416;2024-03-22T09:20:21;25.02;;;11.65;;
19879;SDS011;10102;50.828;4.416;2024-03-22T09:22:48;19.08;;;12.15;;
19879;SDS011;10102;50.828;4.416;2024-03-22T09:25:14;21.35;;;11.70;;
19879;SDS011;10102;50.828;4.416;2024-03-22T09:27:39;21.10;;;12.00;;
19879;SDS011;10102;50.828;4.416;2024-03-22T09:30:05;23.02;;;11.48;;
19879;SDS011;10102;50.828;4.416;2024-03-22T09:32:31;21.02;;;12.27;;
19879;SDS011;10102;50.828;4.416;2024-03-22T09:34:57;18.08;;;11.88;;
19879;SDS011;10102;50.828;4.416;2024-03-22T09:37:23;20.05;;;11.93;;
19879;SDS011;10102;50.828;4.416;2024-03-22T09:39:48;17.73;;;11.30;;
19879;SDS011;10102;50.828;4.416;2024-03-22T09:42:16;22.90;;;12.43;;
19879;SDS011;10102;50.828;4.416;2024-03-22T09:44:48;19.42;;;12.10;;
19879;SDS011;10102;50.828;4.416;2024-03-22T09:47:15;22.73;;;12.43;;
19879;SDS011;10102;50.828;4.416;2024-03-22T09:49:42;21.02;;;12.77;;
19879;SDS011;10102;50.828;4.416;2024-03-22T09:52:18;19.80;;;12.48;;
19879;SDS011;10102;50.828;4.416;2024-03-22T09:54:45;25.10;;;13.25;;
19879;SDS011;10102;50.828;4.416;2024-03-22T09:57:14;21.02;;;12.80;;
19879;SDS011;10102;50.828;4.416;2024-03-22T09:59:41;22.23;;;13.02;;
19879;SDS011;10102;50.828;4.416;2024-03-22T10:02:08;22.10;;;12.35;;
19879;SDS011;10102;50.828;4.416;2024-03-22T10:04:37;26.27;;;13.52;;
19879;SDS011;10102;50.828;4.416;2024-03-22T10:07:03;20.15;;;13.02;;
19879;SDS011;10102;50.828;4.416;2024-03-22T10:09:29;21.58;;;12.48;;
19879;SDS011;10102;50.828;4.416;2024-03-22T10:11:56;21.73;;;12.10;;
19879;SDS011;10102;50.828;4.416;2024-03-22T10:14:22;20.25;;;12.35;;
19879;SDS011;10102;50.828;4.416;2024-03-22T10:16:53;20.60;;;11.55;;
19879;SDS011;10102;50.828;4.416;2024-03-22T10:19:22;17.77;;;11.55;;
19879;SDS011;10102;50.828;4.416;2024-03-22T10:21:58;19.90;;;11.82;;
19879;SDS011;10102;50.828;4.416;2024-03-22T10:24:25;22.05;;;11.82;;
19879;SDS011;10102;50.828;4.416;2024-03-22T10:26:51;19.38;;;10.77;;
19879;SDS011;10102;50.828;4.416;2024-03-22T10:29:17;23.33;;;11.45;;
19879;SDS011;10102;50.828;4.416;2024-03-22T10:31:45;19.98;;;12.18;;
19879;SDS011;10102;50.828;4.416;2024-03-22T10:34:12;22.80;;;12.15;;
19879;SDS011;10102;50.828;4.416;2024-03-22T10:36:39;22.48;;;11.60;;
19879;SDS011;10102;50.828;4.416;2024-03-22T10:39:06;19.80;;;10.73;;
19879;SDS011;10102;50.828;4.416;2024-03-22T10:41:34;19.33;;;10.82;;
19879;SDS011;10102;50.828;4.416;2024-03-22T10:44:00;17.27;;;10.23;;
19879;SDS011;10102;50.828;4.416;2024-03-22T10:46:28;19.48;;;11.30;;
19879;SDS011;10102;50.828;4.416;2024-03-22T10:48:56;17.83;;;11.02;;
19879;SDS011;10102;50.828;4.416;2024-03-22T10:51:25;20.88;;;11.20;;
19879;SDS011;10102;50.828;4.416;2024-03-22T10:53:53;19.85;;;11.18;;
19879;SDS011;10102;50.828;4.416;2024-03-22T10:56:21;23.05;;;10.40;;
19879;SDS011;10102;50.828;4.416;2024-03-22T10:58:48;18.58;;;11.85;;
19879;SDS011;10102;50.828;4.416;2024-03-22T11:01:24;18.52;;;11.15;;
19879;SDS011;10102;50.828;4.416;2024-03-22T11:03:51;22.42;;;10.55;;
19879;SDS011;10102;50.828;4.416;2024-03-22T11:06:28;18.52;;;10.93;;
19879;SDS011;10102;50.828;4.416;2024-03-22T11:08:55;21.02;;;10.70;;
19879;SDS011;10102;50.828;4.416;2024-03-22T11:11:25;22.45;;;11.73;;
19879;SDS011;10102;50.828;4.416;2024-03-22T11:13:54;20.40;;;12.27;;
19879;SDS011;10102;50.828;4.416;2024-03-22T11:16:21;21.50;;;11.75;;
19879;SDS011;10102;50.828;4.416;2024-03-22T11:18:47;20.15;;;11.68;;
19879;SDS011;10102;50.828;4.416;2024-03-22T11:21:16;21.55;;;11.80;;
19879;SDS011;10102;50.828;4.416;2024-03-22T11:23:45;17.65;;;10.07;;
19879;SDS011;10102;50.828;4.416;2024-03-22T11:26:11;16.75;;;10.60;;
19879;SDS011;10102;50.828;4.416;2024-03-22T11:28:38;17.70;;;10.82;;
19879;SDS011;10102;50.828;4.416;2024-03-22T11:31:07;16.80;;;10.63;;
19879;SDS011;10102;50.828;4.416;2024-03-22T11:33:33;21.95;;;10.40;;
19879;SDS011;10102;50.828;4.416;2024-03-22T11:35:59;16.85;;;10.65;;
19879;SDS011;10102;50.828;4.416;2024-03-22T11:38:26;21.23;;;10.75;;
19879;SDS011;10102;50.828;4.416;2024-03-22T11:40:52;18.80;;;10.70;;
19879;SDS011;10102;50.828;4.416;2024-03-22T11:43:20;20.60;;;10.98;;
19879;SDS011;10102;50.828;4.416;2024-03-22T11:45:46;26.42;;;11.98;;
19879;SDS011;10102;50.828;4.416;2024-03-22T11:48:12;17.17;;;10.20;;
19879;SDS011;10102;50.828;4.416;2024-03-22T11:50:38;18.90;;;10.75;;
19879;SDS011;10102;50.828;4.416;2024-03-22T11:53:05;20.75;;;11.10;;
19879;SDS011;10102;50.828;4.416;2024-03-22T11:55:31;24.23;;;11.18;;
19879;SDS011;10102;50.828;4.416;2024-03-22T11:57:57;17.67;;;10.93;;
19879;SDS011;10102;50.828;4.416;2024-03-22T12:00:23;16.77;;;10.27;;
19879;SDS011;10102;50.828;4.416;2024-03-22T12:02:50;20.52;;;10.95;;
19879;SDS011;10102;50.828;4.416;2024-03-22T12:05:22;22.92;;;10.15;;
19879;SDS011;10102;50.828;4.416;2024-03-22T12:07:51;20.58;;;11.43;;
19879;SDS011;10102;50.828;4.416;2024-03-22T12:10:17;19.52;;;11.23;;
19879;SDS011;10102;50.828;4.416;2024-03-22T12:12:43;19.98;;;11.95;;
19879;SDS011;10102;50.828;4.416;2024-03-22T12:15:08;19.92;;;11.50;;
19879;SDS011;10102;50.828;4.416;2024-03-22T12:17:34;18.17;;;10.95;;
19879;SDS011;10102;50.828;4.416;2024-03-22T12:20:02;19.40;;;11.85;;
19879;SDS011;10102;50.828;4.416;2024-03-22T12:22:29;17.85;;;11.43;;
19879;SDS011;10102;50.828;4.416;2024-03-22T12:24:55;27.48;;;11.57;;
19879;SDS011;10102;50.828;4.416;2024-03-22T12:27:20;20.95;;;11.85;;
19879;SDS011;10102;50.828;4.416;2024-03-22T12:29:46;17.90;;;11.13;;
19879;SDS011;10102;50.828;4.416;2024-03-22T12:32:12;21.98;;;11.80;;
19879;SDS011;10102;50.828;4.416;2024-03-22T12:34:38;25.05;;;10.85;;
19879;SDS011;10102;50.828;4.416;2024-03-22T12:37:04;24.30;;;12.70;;
19879;SDS011;10102;50.828;4.416;2024-03-22T12:39:30;19.40;;;11.13;;
19879;SDS011;10102;50.828;4.416;2024-03-22T12:41:57;28.58;;;12.15;;
19879;SDS011;10102;50.828;4.416;2024-03-22T12:44:23;20.30;;;11.07;;
19879;SDS011;10102;50.828;4.416;2024-03-22T12:46:49;20.10;;;11.15;;
19879;SDS011;10102;50.828;4.416;2024-03-22T12:49:16;16.55;;;10.80;;
19879;SDS011;10102;50.828;4.416;2024-03-22T12:51:42;19.17;;;10.73;;
19879;SDS011;10102;50.828;4.416;2024-03-22T12:54:08;26.77;;;9.90;;
19879;SDS011;10102;50.828;4.416;2024-03-22T12:56:34;17.08;;;9.52;;
19879;SDS011;10102;50.828;4.416;2024-03-22T12:59:02;21.23;;;10.57;;
19879;SDS011;10102;50.828;4.416;2024-03-22T13:01:27;21.90;;;9.30;;
19879;SDS011;10102;50.828;4.416;2024-03-22T13:03:54;19.83;;;8.63;;
19879;SDS011;10102;50.828;4.416;2024-03-22T13:06:20;18.95;;;9.20;;
19879;SDS011;10102;50.828;4.416;2024-03-22T13:08:45;20.08;;;9.27;;
19879;SDS011;10102;50.828;4.416;2024-03-22T13:11:12;17.38;;;8.88;;
19879;SDS011;10102;50.828;4.416;2024-03-22T13:13:39;16.45;;;10.15;;
19879;SDS011;10102;50.828;4.416;2024-03-22T13:16:05;21.60;;;10.32;;
19879;SDS011;10102;50.828;4.416;2024-03-22T13:18:32;30.48;;;11.45;;
19879;SDS011;10102;50.828;4.416;2024-03-22T13:20:57;17.58;;;8.88;;
19879;SDS011;10102;50.828;4.416;2024-03-22T13:23:23;20.15;;;8.75;;
19879;SDS011;10102;50.828;4.416;2024-03-22T13:25:49;27.55;;;10.25;;
19879;SDS011;10102;50.828;4.416;2024-03-22T13:28:15;21.13;;;9.75;;
19879;SDS011;10102;50.828;4.416;2024-03-22T13:30:45;15.32;;;9.05;;
19879;SDS011;10102;50.828;4.416;2024-03-22T13:33:11;16.70;;;9.50;;
19879;SDS011;10102;50.828;4.416;2024-03-22T13:35:37;16.13;;;8.77;;
19879;SDS011;10102;50.828;4.416;2024-03-22T13:38:03;14.77;;;9.13;;
19879;SDS011;10102;50.828;4.416;2024-03-22T13:40:29;15.40;;;9.35;;
19879;SDS011;10102;50.828;4.416;2024-03-22T13:42:54;18.83;;;8.93;;
19879;SDS011;10102;50.828;4.416;2024-03-22T13:45:20;17.02;;;9.65;;
19879;SDS011;10102;50.828;4.416;2024-03-22T13:47:46;19.55;;;9.55;;
19879;SDS011;10102;50.828;4.416;2024-03-22T13:50:12;15.80;;;9.50;;
19879;SDS011;10102;50.828;4.416;2024-03-22T13:52:38;20.60;;;10.13;;
19879;SDS011;10102;50.828;4.416;2024-03-22T13:55:04;20.65;;;9.52;;
19879;SDS011;10102;50.828;4.416;2024-03-22T13:57:30;18.27;;;9.45;;
19879;SDS011;10102;50.828;4.416;2024-03-22T13:59:57;19.42;;;9.57;;
19879;SDS011;10102;50.828;4.416;2024-03-22T14:02:24;18.08;;;9.60;;
19879;SDS011;10102;50.828;4.416;2024-03-22T14:04:49;17.88;;;9.98;;
19879;SDS011;10102;50.828;4.416;2024-03-22T14:07:15;17.48;;;8.95;;
19879;SDS011;10102;50.828;4.416;2024-03-22T14:09:41;19.20;;;10.18;;
19879;SDS011;10102;50.828;4.416;2024-03-22T14:12:08;19.42;;;10.60;;
19879;SDS011;10102;50.828;4.416;2024-03-22T14:14:34;20.38;;;10.23;;
19879;SDS011;10102;50.828;4.416;2024-03-22T14:17:00;20.80;;;9.57;;
19879;SDS011;10102;50.828;4.416;2024-03-22T14:19:26;15.55;;;10.10;;
19879;SDS011;10102;50.828;4.416;2024-03-22T14:21:51;16.02;;;10.38;;
19879;SDS011;10102;50.828;4.416;2024-03-22T14:24:17;22.08;;;9.77;;
19879;SDS011;10102;50.828;4.416;2024-03-22T14:26:43;14.15;;;9.40;;